Time;durP1;ratioP1;P1;durP2;ratioP2;P2;SDS_P1;SDS_P2;PMS_P1;PMS_P2;Temp;Humidity;BMP_temperature;BMP_pressure;BME280_temperature;BME280_humidity;BME280_pressure;Samples;Min_cycle;Max_cycle;Signal;HPM_P1;HPM_P2
2021/10/30 00:01:57;;;;;;;71.90;49.03;;;;;;;9.32;65.58;101695.56;5094108;28;20126;-72
2021/10/30 00:04:22;;;;;;;68.47;50.38;;;;;;;9.52;65.16;101717.91;5081698;28;20038;-72
2021/10/30 00:06:48;;;;;;;67.80;48.60;;;;;;;9.44;64.56;101698.50;5081857;28;20056;-72
2021/10/30 00:09:14;;;;;;;74.47;53.67;;;;;;;8.87;67.29;101736.28;5080662;28;20492;-72
2021/10/30 00:11:39;;;;;;;61.42;45.88;;;;;;;8.87;67.82;101731.03;5082616;28;20055;-72
2021/10/30 00:14:05;;;;;;;67.75;47.50;;;;;;;9.05;67.06;101738.50;5085175;28;20040;-72
2021/10/30 00:16:30;;;;;;;66.05;45.88;;;;;;;9.23;65.98;101730.25;5079356;28;20108;-72
2021/10/30 00:18:56;;;;;;;68.78;48.63;;;;;;;8.36;67.69;101696.38;5077078;28;20794;-71
2021/10/30 00:21:22;;;;;;;76.50;48.63;;;;;;;8.01;69.04;101702.28;5078148;28;20640;-71
2021/10/30 00:23:48;;;;;;;64.32;47.65;;;;;;;8.19;69.50;101735.06;5078240;28;20123;-71
2021/10/30 00:26:13;;;;;;;57.47;47.53;;;;;;;7.83;69.93;101692.13;5084976;28;20128;-72
2021/10/30 00:28:39;;;;;;;68.97;46.97;;;;;;;8.11;68.63;101684.28;5072851;28;20048;-72
2021/10/30 00:31:05;;;;;;;62.83;47.45;;;;;;;8.21;68.42;101705.50;5076659;28;20047;-72
2021/10/30 00:33:32;;;;;;;60.58;44.05;;;;;;;8.36;68.31;101710.31;5076258;28;20075;-72
2021/10/30 00:35:57;;;;;;;73.45;46.03;;;;;;;8.29;68.08;101697.00;5079722;28;20463;-72
2021/10/30 00:38:23;;;;;;;58.40;43.92;;;;;;;8.07;69.80;101730.34;5082142;28;20040;-73
2021/10/30 00:40:48;;;;;;;65.40;45.13;;;;;;;8.50;68.48;101738.63;5083897;28;20075;-72
2021/10/30 00:43:14;;;;;;;62.53;43.58;;;;;;;8.11;69.23;101729.59;5082912;28;20039;-72
2021/10/30 00:45:39;;;;;;;55.17;41.53;;;;;;;7.70;71.03;101733.50;5083070;28;20108;-72
2021/10/30 00:48:05;;;;;;;64.78;46.15;;;;;;;7.70;70.82;101712.59;5087083;28;20525;-72
2021/10/30 00:50:31;;;;;;;57.10;42.55;;;;;;;7.74;70.75;101717.97;5075879;28;20048;-72
2021/10/30 00:52:56;;;;;;;64.60;44.40;;;;;;;7.93;69.56;101695.91;5081104;28;20062;-72
2021/10/30 00:55:23;;;;;;;57.78;43.72;;;;;;;8.42;68.39;101715.75;5083296;28;20423;-72
2021/10/30 00:57:52;;;;;;;61.60;45.40;;;;;;;7.67;69.99;101686.38;5090918;28;20505;-72
2021/10/30 01:00:18;;;;;;;70.50;44.70;;;;;;;7.42;70.85;101687.28;5064512;28;20106;-72
2021/10/30 01:02:43;;;;;;;64.10;43.55;;;;;;;7.47;71.18;101697.06;5054321;28;20041;-72
2021/10/30 01:05:09;;;;;;;55.92;44.53;;;;;;;7.77;71.27;101711.94;5053652;28;20039;-71
2021/10/30 01:07:35;;;;;;;75.07;45.08;;;;;;;7.53;71.86;101723.38;5077655;28;20064;-72
2021/10/30 01:10:00;;;;;;;68.32;45.40;;;;;;;7.40;71.85;101697.69;5060467;28;21510;-71
2021/10/30 01:12:26;;;;;;;60.13;46.50;;;;;;;7.65;71.54;101720.28;5060059;28;20159;-71
2021/10/30 01:14:52;;;;;;;59.03;43.30;;;;;;;7.36;71.93;101694.06;5053660;28;20041;-71
2021/10/30 01:17:18;;;;;;;54.70;43.90;;;;;;;7.71;71.05;101683.91;5060159;28;20041;-71
2021/10/30 01:19:44;;;;;;;62.55;42.80;;;;;;;8.16;69.43;101720.16;5066640;28;20051;-71
2021/10/30 01:22:10;;;;;;;61.85;45.00;;;;;;;7.54;71.40;101695.56;5078350;28;20032;-72
2021/10/30 01:24:35;;;;;;;62.40;45.42;;;;;;;7.36;72.83;101714.97;5065071;28;20472;-71
2021/10/30 01:27:01;;;;;;;64.13;44.83;;;;;;;7.07;73.14;101686.97;5057974;28;20051;-71
2021/10/30 01:29:28;;;;;;;65.43;44.50;;;;;;;7.50;72.52;101717.16;5065055;28;20036;-71
2021/10/30 01:31:54;;;;;;;61.90;42.63;;;;;;;7.56;72.36;101725.19;5065867;28;20076;-71
2021/10/30 01:34:26;;;;;;;65.20;42.72;;;;;;;7.44;72.85;101717.81;5064677;28;20369;-71
2021/10/30 01:36:51;;;;;;;58.00;44.88;;;;;;;7.34;72.82;101707.91;5067178;28;20074;-71
2021/10/30 01:39:17;;;;;;;96.10;44.80;;;;;;;7.55;72.23;101718.19;5058284;28;20045;-71
2021/10/30 01:41:44;;;;;;;57.08;43.58;;;;;;;7.32;73.00;101693.91;5059443;28;20075;-71
2021/10/30 01:44:10;;;;;;;55.05;41.50;;;;;;;7.25;73.48;101708.47;5061397;28;20075;-70
2021/10/30 01:46:35;;;;;;;58.60;40.00;;;;;;;7.33;73.31;101696.59;5072237;28;20136;-70
2021/10/30 01:49:01;;;;;;;63.05;43.50;;;;;;;7.74;71.62;101691.84;5068611;28;20136;-72
2021/10/30 01:51:27;;;;;;;64.07;40.65;;;;;;;7.53;72.04;101683.31;5072429;28;20048;-71
2021/10/30 01:53:53;;;;;;;57.40;41.58;;;;;;;7.86;71.39;101716.59;5060544;28;20064;-71
2021/10/30 01:56:20;;;;;;;59.58;42.45;;;;;;;7.60;73.06;101719.25;5062029;28;20052;-70
2021/10/30 01:58:46;;;;;;;53.47;42.25;;;;;;;7.50;72.55;101691.94;5063845;28;20076;-72
2021/10/30 02:01:12;;;;;;;59.00;42.28;;;;;;;7.40;73.29;101721.19;5066933;28;20021;-71
2021/10/30 02:03:37;;;;;;;61.35;43.47;;;;;;;7.79;71.83;101691.97;5078485;28;20036;-72
2021/10/30 02:06:04;;;;;;;64.80;43.35;;;;;;;7.79;72.22;101724.22;5084317;28;20043;-71
2021/10/30 02:08:30;;;;;;;58.55;41.88;;;;;;;7.52;73.23;101723.34;5084655;28;20055;-71
2021/10/30 02:10:56;;;;;;;53.20;41.58;;;;;;;7.75;72.68;101722.38;5081857;28;20044;-71
2021/10/30 02:13:22;;;;;;;62.80;42.75;;;;;;;8.03;71.63;101716.28;5089262;28;20035;-71
2021/10/30 02:15:49;;;;;;;57.63;43.60;;;;;;;7.79;71.70;101687.63;5085708;28;20399;-71
2021/10/30 02:18:15;;;;;;;60.50;43.03;;;;;;;7.58;73.16;101726.13;5086677;28;20078;-72
2021/10/30 02:20:41;;;;;;;57.90;44.30;;;;;;;7.35;73.75;101702.75;5081617;28;20131;-72
2021/10/30 02:23:07;;;;;;;70.07;46.83;;;;;;;7.31;74.59;101734.81;5076188;28;20063;-71
2021/10/30 02:25:33;;;;;;;58.80;41.95;;;;;;;7.28;74.67;101726.88;5078125;28;20662;-71
2021/10/30 02:27:58;;;;;;;66.63;41.80;;;;;;;6.96;75.17;101700.53;5088005;28;20032;-71
2021/10/30 02:30:25;;;;;;;63.83;44.38;;;;;;;7.07;75.48;101727.03;5096199;27;20159;-71
2021/10/30 02:32:51;;;;;;;57.03;43.67;;;;;;;6.97;75.51;101704.91;5069832;28;20810;-71
2021/10/30 02:35:17;;;;;;;65.20;45.72;;;;;;;7.08;75.09;101705.28;5076639;28;20059;-71
2021/10/30 02:37:43;;;;;;;68.22;43.63;;;;;;;7.33;74.26;101707.03;5072140;28;20047;-71
2021/10/30 02:40:08;;;;;;;59.47;41.90;;;;;;;7.23;75.17;101723.19;5100984;28;20020;-71
2021/10/30 02:42:35;;;;;;;55.25;43.75;;;;;;;6.95;75.53;101709.22;5083629;28;20501;-71
2021/10/30 02:45:05;;;;;;;64.38;41.97;;;;;;;7.04;75.76;101707.75;5084367;28;20056;-71
2021/10/30 02:47:30;;;;;;;62.25;43.75;;;;;;;6.94;76.07;101720.47;5078942;28;20067;-71
2021/10/30 02:49:56;;;;;;;51.58;41.53;;;;;;;7.39;73.90;101696.78;5081199;28;20075;-71
2021/10/30 02:52:22;;;;;;;64.15;43.17;;;;;;;6.64;76.38;101717.63;5082329;28;20055;-71
2021/10/30 02:54:47;;;;;;;61.88;46.17;;;;;;;6.49;77.67;101756.19;5085503;28;24012;-71
2021/10/30 02:57:13;;;;;;;57.53;46.33;;;;;;;6.42;78.22;101755.03;5084953;28;20785;-71
2021/10/30 02:59:38;;;;;;;64.80;45.33;;;;;;;6.38;77.95;101734.00;5084898;28;20056;-71
2021/10/30 03:02:04;;;;;;;58.45;45.63;;;;;;;6.49;77.96;101756.19;5081618;28;20380;-71
2021/10/30 03:04:30;;;;;;;54.75;43.22;;;;;;;6.48;77.55;101726.59;5082237;28;20051;-71
2021/10/30 03:06:55;;;;;;;55.72;45.08;;;;;;;6.60;77.61;101743.53;5082767;28;21719;-71
2021/10/30 03:09:21;;;;;;;64.45;42.53;;;;;;;6.66;77.31;101733.34;5087886;28;20032;-71
2021/10/30 03:11:46;;;;;;;56.38;44.53;;;;;;;6.97;76.94;101759.69;5089974;28;20095;-71
2021/10/30 03:14:12;;;;;;;50.15;38.35;;;;;;;6.95;76.86;101753.56;5082805;28;20468;-71
2021/10/30 03:16:37;;;;;;;51.78;39.40;;;;;;;6.96;76.93;101726.63;5084544;28;20220;-72
2021/10/30 03:19:03;;;;;;;66.40;43.22;;;;;;;7.12;77.33;101755.91;5076509;28;20028;-72
2021/10/30 03:21:28;;;;;;;61.45;38.58;;;;;;;7.41;76.85;101759.53;5070981;28;20388;-72
2021/10/30 03:23:54;;;;;;;61.08;42.42;;;;;;;6.78;79.11;101761.59;5086223;27;20093;-72
2021/10/30 03:26:20;;;;;;;62.22;42.03;;;;;;;6.69;79.98;101765.63;5083760;27;20044;-72
2021/10/30 03:28:45;;;;;;;53.95;36.55;;;;;;;6.86;80.72;101767.97;5078351;28;20682;-72
2021/10/30 03:31:11;;;;;;;51.03;37.65;;;;;;;7.26;78.84;101769.41;5082033;28;20558;-70
2021/10/30 03:33:37;;;;;;;63.47;39.30;;;;;;;7.26;78.77;101775.53;5068283;28;20502;-72
2021/10/30 03:36:04;;;;;;;72.07;43.17;;;;;;;6.74;80.27;101745.84;5086632;28;20403;-72
2021/10/30 03:38:30;;;;;;;67.32;40.20;;;;;;;6.75;80.94;101747.59;5085504;28;20047;-70
2021/10/30 03:40:55;;;;;;;48.10;38.88;;;;;;;7.10;80.67;101768.88;5078460;28;20155;-72
2021/10/30 03:43:21;;;;;;;50.33;40.58;;;;;;;7.33;79.56;101763.59;5079870;28;20035;-72
2021/10/30 03:45:46;;;;;;;64.13;38.65;;;;;;;7.27;79.22;101768.59;5079663;28;20503;-72
2021/10/30 03:48:12;;;;;;;64.18;40.13;;;;;;;7.52;79.45;101763.38;5082593;28;20095;-71
2021/10/30 03:50:38;;;;;;;71.93;40.60;;;;;;;7.25;79.50;101763.31;5080922;28;20081;-72
2021/10/30 03:53:05;;;;;;;58.80;40.45;;;;;;;7.07;79.48;101713.06;5083227;28;20043;-73
2021/10/30 03:55:31;;;;;;;69.78;46.63;;;;;;;7.68;78.67;101763.88;5079712;28;20048;-72
2021/10/30 03:57:57;;;;;;;83.47;48.67;;;;;;;7.27;79.45;101740.75;5082817;28;20416;-72
2021/10/30 04:00:22;;;;;;;64.78;43.25;;;;;;;7.28;80.31;101745.16;5077523;28;20087;-73
2021/10/30 04:02:48;;;;;;;71.55;42.78;;;;;;;7.71;78.22;101745.72;5078420;28;20047;-73
2021/10/30 04:05:14;;;;;;;69.32;42.08;;;;;;;7.75;77.95;101739.75;5084384;28;20048;-73
2021/10/30 04:07:39;;;;;;;68.45;40.45;;;;;;;8.23;76.95;101756.13;5081857;28;20566;-72
2021/10/30 04:10:06;;;;;;;57.70;40.97;;;;;;;7.75;77.62;101755.41;5069022;28;20028;-72
2021/10/30 04:12:31;;;;;;;58.13;38.20;;;;;;;7.82;77.99;101768.75;5081017;28;20185;-72
2021/10/30 04:14:57;;;;;;;51.30;38.05;;;;;;;7.64;77.68;101759.44;5076100;28;20044;-72
2021/10/30 04:17:22;;;;;;;48.88;35.28;;;;;;;7.27;78.40;101748.59;5080447;28;20056;-72
2021/10/30 04:19:48;;;;;;;55.42;38.17;;;;;;;6.81;80.49;101746.94;5070972;28;20049;-73
2021/10/30 04:22:14;;;;;;;60.28;36.75;;;;;;;7.69;78.70;101770.91;5069822;28;20105;-72
2021/10/30 04:24:39;;;;;;;48.45;34.80;;;;;;;7.44;79.19;101763.94;5076152;28;20055;-72
2021/10/30 04:27:05;;;;;;;55.50;38.55;;;;;;;6.88;80.28;101766.31;5082025;28;20075;-73
2021/10/30 04:29:30;;;;;;;61.88;38.60;;;;;;;6.41;81.56;101742.81;5076053;28;20071;-72
2021/10/30 04:31:58;;;;;;;54.60;37.13;;;;;;;6.51;82.12;101762.34;5050497;28;20057;-72
2021/10/30 04:34:34;;;;;;;53.47;36.45;;;;;;;6.36;81.73;101739.16;5056356;28;20151;-72
2021/10/30 04:37:02;;;;;;;55.88;35.63;;;;;;;6.94;80.59;101745.69;5062400;28;20032;-72
2021/10/30 04:39:27;;;;;;;47.67;33.55;;;;;;;7.06;79.14;101758.28;5061889;28;20084;-72
2021/10/30 04:41:53;;;;;;;44.83;34.55;;;;;;;7.10;78.60;101755.84;5061639;28;20095;-72
2021/10/30 04:44:18;;;;;;;44.17;29.98;;;;;;;7.13;78.66;101778.53;5057574;28;20098;-72
2021/10/30 04:46:44;;;;;;;56.53;38.03;;;;;;;7.11;78.51;101777.59;5064540;28;20773;-72
2021/10/30 04:49:09;;;;;;;42.60;35.10;;;;;;;7.08;77.42;101752.28;5057490;28;20552;-73
2021/10/30 04:51:35;;;;;;;60.97;38.53;;;;;;;7.12;77.68;101774.16;5060951;28;20598;-73
2021/10/30 04:54:01;;;;;;;65.72;38.75;;;;;;;7.36;77.12;101772.41;5062141;28;20053;-74
2021/10/30 04:56:26;;;;;;;48.88;35.45;;;;;;;7.23;76.53;101759.75;5090930;28;20057;-72
2021/10/30 04:58:52;;;;;;;47.78;36.10;;;;;;;6.64;77.55;101727.16;5059942;28;20125;-71
2021/10/30 05:01:17;;;;;;;53.75;36.63;;;;;;;7.33;77.02;101777.53;5067390;28;20446;-71
2021/10/30 05:03:43;;;;;;;54.05;34.42;;;;;;;6.75;77.75;101776.28;5083143;28;20024;-72
2021/10/30 05:06:10;;;;;;;45.47;32.13;;;;;;;6.58;78.50;101753.00;5081311;28;20048;-73
2021/10/30 05:08:37;;;;;;;49.20;33.42;;;;;;;6.95;77.90;101769.22;5085528;28;20048;-71
2021/10/30 05:11:02;;;;;;;47.22;33.75;;;;;;;7.15;76.33;101758.59;5073390;28;20056;-72
2021/10/30 05:13:28;;;;;;;53.40;34.83;;;;;;;7.52;74.80;101757.28;5081846;28;20475;-70
2021/10/30 05:15:54;;;;;;;54.67;34.03;;;;;;;7.30;75.18;101760.84;5081725;28;20052;-72
2021/10/30 05:18:20;;;;;;;44.83;31.50;;;;;;;6.63;76.29;101713.25;5075959;28;20137;-70
2021/10/30 05:20:45;;;;;;;44.67;31.80;;;;;;;7.46;76.34;101798.84;5075808;28;20067;-72
2021/10/30 05:23:11;;;;;;;43.33;31.38;;;;;;;7.46;75.70;101791.00;5083337;28;20522;-72
2021/10/30 05:25:36;;;;;;;35.92;28.63;;;;;;;7.31;76.11;101766.16;5077439;28;20168;-72
2021/10/30 05:28:02;;;;;;;44.95;28.73;;;;;;;7.60;75.56;101771.47;5092080;28;20185;-72
2021/10/30 05:30:27;;;;;;;49.70;33.63;;;;;;;7.28;76.59;101770.34;5068680;28;20036;-72
2021/10/30 05:32:52;;;;;;;50.17;33.42;;;;;;;7.29;76.91;101766.94;5060368;28;20095;-72
2021/10/30 05:35:18;;;;;;;45.90;31.85;;;;;;;7.56;76.46;101775.72;5062969;28;20616;-72
2021/10/30 05:37:44;;;;;;;42.30;31.67;;;;;;;7.71;76.17;101783.19;5060165;28;20053;-72
2021/10/30 05:40:10;;;;;;;49.33;31.55;;;;;;;7.39;76.95;101756.84;5071343;28;20047;-72
2021/10/30 05:42:36;;;;;;;49.20;33.78;;;;;;;7.79;76.40;101794.75;5064087;28;20060;-72
2021/10/30 05:45:07;;;;;;;47.63;32.78;;;;;;;7.94;76.33;101799.63;5051638;28;20045;-72
2021/10/30 05:47:34;;;;;;;53.85;34.70;;;;;;;8.23;75.74;101792.72;5056333;28;21040;-72
2021/10/30 05:50:00;;;;;;;50.17;35.22;;;;;;;8.04;76.52;101792.97;5063489;28;20060;-71
2021/10/30 05:52:26;;;;;;;65.20;37.85;;;;;;;7.56;79.06;101804.47;5068675;28;20051;-70
2021/10/30 05:54:51;;;;;;;47.70;34.63;;;;;;;7.79;78.60;101802.59;5060272;28;20044;-73
2021/10/30 05:57:17;;;;;;;56.38;36.13;;;;;;;7.87;78.35;101799.41;5084407;28;20044;-71
2021/10/30 05:59:42;;;;;;;64.70;40.30;;;;;;;7.90;78.85;101807.31;5062386;28;20041;-71
2021/10/30 06:02:12;;;;;;;60.20;39.58;;;;;;;7.44;80.12;101788.34;5068086;28;20550;-71
2021/10/30 06:04:41;;;;;;;61.28;37.90;;;;;;;7.98;78.99;101785.84;5085217;28;20075;-71
2021/10/30 06:07:07;;;;;;;78.43;46.40;;;;;;;7.81;79.28;101790.47;5079320;28;20043;-71
2021/10/30 06:09:33;;;;;;;65.70;44.28;;;;;;;7.85;79.90;101812.41;5084147;28;20040;-71
2021/10/30 06:11:59;;;;;;;102.35;46.08;;;;;;;7.91;80.45;101815.19;5075996;28;20455;-71
2021/10/30 06:14:26;;;;;;;72.65;40.03;;;;;;;7.75;80.73;101818.13;5081530;28;20048;-72
2021/10/30 06:16:51;;;;;;;104.97;42.45;;;;;;;7.58;81.30;101794.91;5076979;27;20059;-72
2021/10/30 06:19:17;;;;;;;77.00;39.00;;;;;;;7.55;81.97;101815.72;5093313;28;20149;-72
2021/10/30 06:21:43;;;;;;;73.45;39.45;;;;;;;7.95;81.53;101800.53;5085583;28;20114;-72
2021/10/30 06:24:09;;;;;;;76.10;41.63;;;;;;;7.55;81.72;101778.28;5071399;28;20127;-72
2021/10/30 06:26:34;;;;;;;93.38;40.95;;;;;;;7.76;82.21;101805.13;5086586;28;20127;-72
2021/10/30 06:28:59;;;;;;;92.43;43.05;;;;;;;7.71;82.32;101808.44;5070844;28;20118;-72
2021/10/30 06:31:25;;;;;;;90.68;44.50;;;;;;;7.90;82.17;101802.97;5065257;28;20393;-71
2021/10/30 06:33:50;;;;;;;95.68;40.45;;;;;;;7.73;82.28;101797.19;5084450;28;20024;-71
2021/10/30 06:36:16;;;;;;;78.93;40.20;;;;;;;7.79;82.21;101786.06;5084701;28;20051;-73
2021/10/30 06:38:42;;;;;;;80.07;38.25;;;;;;;8.24;81.77;101809.28;5083895;28;20533;-73
2021/10/30 06:41:08;;;;;;;73.03;39.65;;;;;;;8.63;80.19;101795.72;5091939;28;20046;-73
2021/10/30 06:43:35;;;;;;;69.65;37.97;;;;;;;8.83;79.62;101810.31;5074711;28;20132;-70
2021/10/30 06:46:00;;;;;;;74.28;39.10;;;;;;;8.80;79.73;101804.06;5076216;28;20426;-73
2021/10/30 06:48:26;;;;;;;65.75;37.85;;;;;;;8.93;79.71;101816.69;5079452;28;20057;-70
2021/10/30 06:50:53;;;;;;;72.25;44.10;;;;;;;8.95;78.93;101794.06;5081478;28;20051;-73
2021/10/30 06:53:19;;;;;;;81.38;42.55;;;;;;;8.84;79.78;101808.56;5086403;28;20549;-72
2021/10/30 06:55:48;;;;;;;86.65;45.55;;;;;;;8.75;80.78;101821.38;5085398;28;20059;-72
2021/10/30 06:58:13;;;;;;;72.57;44.03;;;;;;;8.52;80.52;101761.41;5082102;28;20040;-71
2021/10/30 07:00:41;;;;;;;87.07;43.28;;;;;;;8.59;81.50;101815.69;5083410;28;20543;-71
2021/10/30 07:03:08;;;;;;;70.88;40.40;;;;;;;8.57;81.53;101756.28;5083248;28;20072;-71
2021/10/30 07:05:34;;;;;;;78.07;42.65;;;;;;;8.97;80.39;101791.50;5073282;28;20048;-72
2021/10/30 07:08:00;;;;;;;78.65;45.13;;;;;;;9.43;79.58;101805.88;5088303;28;20055;-72
2021/10/30 07:10:25;;;;;;;78.72;47.47;;;;;;;9.00;80.44;101774.13;5082774;28;20692;-72
2021/10/30 07:12:51;;;;;;;76.25;44.70;;;;;;;9.35;80.17;101794.31;5086684;28;20071;-71
2021/10/30 07:15:17;;;;;;;77.22;43.92;;;;;;;8.97;81.71;101817.69;5085957;28;20048;-71
2021/10/30 07:17:42;;;;;;;88.18;44.05;;;;;;;9.18;81.37;101820.91;5079959;28;21318;-71
2021/10/30 07:20:09;;;;;;;82.25;44.65;;;;;;;9.26;81.38;101808.03;5083566;28;20117;-71
2021/10/30 07:22:48;;;;;;;70.53;39.75;;;;;;;9.34;80.86;101780.31;5078977;28;20055;-71
2021/10/30 07:25:16;;;;;;;72.82;39.33;;;;;;;9.06;82.00;101808.38;5079798;28;20036;-73
2021/10/30 07:27:42;;;;;;;70.40;39.90;;;;;;;8.93;82.76;101785.28;5083496;28;20514;-71
2021/10/30 07:30:10;;;;;;;70.38;40.80;;;;;;;9.16;81.91;101785.94;5082982;28;20051;-72
2021/10/30 07:32:36;;;;;;;69.53;39.97;;;;;;;8.94;82.94;101801.88;5082314;28;20052;-72
2021/10/30 07:35:03;;;;;;;62.72;41.83;;;;;;;8.97;83.39;101775.81;5079901;28;20517;-72
2021/10/30 07:37:29;;;;;;;90.35;44.33;;;;;;;9.17;82.73;101769.38;5081200;28;20702;-73
2021/10/30 07:39:55;;;;;;;75.43;39.75;;;;;;;9.13;82.90;101767.53;5079524;28;20469;-72
2021/10/30 07:42:21;;;;;;;66.10;38.20;;;;;;;9.20;82.78;101800.91;5083427;28;20048;-71
2021/10/30 07:44:47;;;;;;;66.07;37.95;;;;;;;9.20;83.36;101786.88;5078342;28;20048;-71
2021/10/30 07:47:13;;;;;;;69.25;38.88;;;;;;;9.13;83.35;101764.91;5079849;28;20109;-72
2021/10/30 07:49:39;;;;;;;57.22;35.83;;;;;;;9.34;82.79;101784.66;5082065;28;20467;-71
2021/10/30 07:52:06;;;;;;;59.10;37.47;;;;;;;9.94;80.83;101760.88;5085780;28;20090;-72
2021/10/30 07:54:33;;;;;;;56.53;35.35;;;;;;;10.29;78.80;101763.50;5074089;28;20066;-71
2021/10/30 07:56:59;;;;;;;71.65;35.20;;;;;;;9.56;79.74;101711.03;5084962;28;20056;-72
2021/10/30 07:59:25;;;;;;;67.38;35.30;;;;;;;9.93;80.31;101769.59;5083359;28;20070;-70
2021/10/30 08:01:52;;;;;;;73.10;33.72;;;;;;;9.55;81.41;101766.00;5076434;28;20060;-72
2021/10/30 08:04:18;;;;;;;70.13;35.33;;;;;;;9.72;81.10;101749.00;5083036;28;20067;-72
2021/10/30 08:06:44;;;;;;;67.32;39.83;;;;;;;9.99;80.75;101755.75;5065602;28;20090;-72
2021/10/30 08:09:10;;;;;;;57.83;37.78;;;;;;;10.01;81.23;101754.06;5060604;28;20040;-72
2021/10/30 08:11:36;;;;;;;73.07;41.55;;;;;;;9.78;82.24;101785.81;5060655;28;20044;-71
2021/10/30 08:14:02;;;;;;;61.25;36.60;;;;;;;9.96;81.96;101781.91;5082765;28;20112;-71
2021/10/30 08:16:28;;;;;;;63.65;39.95;;;;;;;9.83;81.63;101742.28;5085742;28;20031;-71
2021/10/30 08:18:53;;;;;;;65.47;39.25;;;;;;;10.08;81.74;101776.94;5081178;28;21102;-71
2021/10/30 08:21:19;;;;;;;65.82;38.40;;;;;;;10.09;81.30;101761.25;5081470;28;20049;-72
2021/10/30 08:23:45;;;;;;;70.57;39.90;;;;;;;10.20;80.98;101752.75;5077766;28;20082;-72
2021/10/30 08:26:11;;;;;;;63.50;36.60;;;;;;;10.25;81.58;101772.09;5081110;28;20500;-71
2021/10/30 08:28:36;;;;;;;62.97;33.88;;;;;;;9.81;82.64;101785.00;5080041;28;20052;-73
2021/10/30 08:31:02;;;;;;;76.25;39.92;;;;;;;10.02;82.43;101782.03;5073950;28;20468;-72
2021/10/30 08:33:27;;;;;;;77.28;37.35;;;;;;;9.73;82.16;101727.16;5076786;28;20468;-71
2021/10/30 08:35:53;;;;;;;63.08;39.78;;;;;;;10.20;82.23;101772.00;5072277;28;20496;-72
2021/10/30 08:38:18;;;;;;;66.22;40.45;;;;;;;10.87;79.77;101791.00;5053409;28;20083;-72
2021/10/30 08:40:44;;;;;;;67.05;39.42;;;;;;;10.87;79.16;101769.13;5054349;28;20546;-72
2021/10/30 08:43:17;;;;;;;65.85;40.67;;;;;;;10.26;80.66;101774.75;5074867;28;20024;-72
2021/10/30 08:45:43;;;;;;;65.72;39.33;;;;;;;10.38;81.21;101787.31;5069625;28;20086;-72
2021/10/30 08:48:10;;;;;;;65.82;41.63;;;;;;;10.48;80.81;101789.28;5093399;28;20443;-71
2021/10/30 08:50:35;;;;;;;71.38;43.75;;;;;;;10.49;81.77;101783.19;5082113;28;20048;-72
2021/10/30 08:53:03;;;;;;;68.50;39.88;;;;;;;11.01;79.46;101761.53;5068300;28;20057;-72
2021/10/30 08:55:29;;;;;;;65.40;38.08;;;;;;;11.31;78.59;101792.78;5069518;28;20044;-72
2021/10/30 08:58:05;;;;;;;62.42;39.20;;;;;;;11.31;77.78;101756.00;5070667;28;20407;-72
2021/10/30 09:00:31;;;;;;;60.90;37.58;;;;;;;11.02;80.06;101782.56;5070953;28;20571;-70
2021/10/30 09:03:03;;;;;;;54.65;36.85;;;;;;;11.00;80.36;101776.38;5069222;28;20144;-72
2021/10/30 09:05:31;;;;;;;66.57;40.47;;;;;;;11.02;79.87;101787.81;5078041;28;20072;-72
2021/10/30 09:07:59;;;;;;;62.80;36.10;;;;;;;11.01;79.30;101753.66;5083195;28;20499;-72
2021/10/30 09:10:35;;;;;;;55.88;35.70;;;;;;;10.81;80.98;101788.25;5083056;28;20032;-70
2021/10/30 09:13:03;;;;;;;64.90;35.67;;;;;;;10.96;79.88;101780.69;5081047;28;20063;-71
2021/10/30 09:15:38;;;;;;;72.07;37.20;;;;;;;11.15;79.90;101779.31;5078780;28;20183;-72
2021/10/30 09:18:34;;;;;;;61.47;39.90;;;;;;;11.10;78.56;101714.44;5080557;28;20051;-72
2021/10/30 09:21:03;;;;;;;59.53;38.47;;;;;;;11.29;78.66;101783.97;5079056;28;20129;-73
2021/10/30 09:23:30;;;;;;;64.47;34.50;;;;;;;10.28;80.64;101680.38;5081463;28;20041;-73
2021/10/30 09:26:05;;;;;;;69.07;40.42;;;;;;;10.90;80.79;101767.44;5074474;28;20098;-71
2021/10/30 09:28:36;;;;;;;66.15;38.45;;;;;;;11.06;80.18;101780.91;5082430;28;20047;-70
2021/10/30 09:31:02;;;;;;;66.88;41.67;;;;;;;11.39;79.11;101773.66;5078974;28;20063;-77
2021/10/30 09:33:31;;;;;;;67.10;39.42;;;;;;;11.52;77.51;101703.81;5075728;28;20291;-75
2021/10/30 09:35:58;;;;;;;61.03;41.75;;;;;;;11.51;77.50;101748.44;5075053;28;20044;-71
2021/10/30 09:38:36;;;;;;;75.40;41.45;;;;;;;11.84;76.46;101746.38;5065967;28;20039;-74
2021/10/30 09:41:04;;;;;;;61.63;40.88;;;;;;;11.38;77.63;101742.09;5060641;28;20411;-76
2021/10/30 09:43:30;;;;;;;67.65;35.78;;;;;;;12.09;76.67;101770.50;5059720;28;20031;-75
2021/10/30 09:46:10;;;;;;;76.30;42.08;;;;;;;11.33;77.75;101730.59;5063801;28;20028;-76
2021/10/30 09:48:40;;;;;;;67.75;41.95;;;;;;;11.44;78.48;101763.22;5075041;28;20564;-76
2021/10/30 09:51:06;;;;;;;73.80;43.55;;;;;;;11.66;78.27;101764.50;5079123;28;20057;-76
2021/10/30 09:53:39;;;;;;;69.03;38.65;;;;;;;12.03;76.85;101757.22;5067667;28;20134;-76
2021/10/30 09:56:09;;;;;;;75.10;43.88;;;;;;;12.23;76.37;101762.81;5059463;28;20041;-76
2021/10/30 09:58:41;;;;;;;70.63;35.65;;;;;;;12.10;76.23;101758.22;5066918;28;20094;-76
2021/10/30 10:01:11;;;;;;;68.90;39.60;;;;;;;12.68;75.04;101761.69;5060712;28;20072;-75
2021/10/30 10:03:38;;;;;;;49.90;32.67;;;;;;;13.25;72.76;101770.25;5050707;28;20138;-76
2021/10/30 10:06:07;;;;;;;65.15;38.50;;;;;;;13.07;72.47;101761.28;5058977;28;20054;-75
2021/10/30 10:08:37;;;;;;;56.67;37.30;;;;;;;13.62;70.54;101758.34;5055976;28;20110;-76
2021/10/30 10:11:03;;;;;;;50.90;36.92;;;;;;;12.36;74.36;101742.81;5058142;28;20480;-77
2021/10/30 10:13:29;;;;;;;54.55;31.95;;;;;;;12.15;75.26;101749.56;5073232;28;20029;-76
2021/10/30 10:15:55;;;;;;;52.90;35.00;;;;;;;12.21;76.72;101748.75;5062921;28;20150;-76
2021/10/30 10:18:21;;;;;;;51.42;33.80;;;;;;;12.75;74.13;101744.22;5062053;28;20067;-77
2021/10/30 10:20:48;;;;;;;59.20;33.83;;;;;;;12.66;74.33;101743.22;5059280;28;20060;-77
2021/10/30 10:23:16;;;;;;;61.95;34.38;;;;;;;12.80;73.30;101734.63;5056899;28;20041;-78
2021/10/30 10:25:50;;;;;;;52.72;32.10;;;;;;;12.22;75.43;101733.00;5051221;28;20056;-76
2021/10/30 10:28:32;;;;;;;57.53;35.88;;;;;;;12.02;76.89;101735.31;5052707;28;20043;-77
2021/10/30 10:31:02;;;;;;;57.15;34.13;;;;;;;11.94;77.21;101725.50;5061713;28;20040;-76
2021/10/30 10:33:29;;;;;;;54.88;36.00;;;;;;;12.03;76.15;101696.72;5049244;28;20947;-77
2021/10/30 10:36:13;;;;;;;64.78;37.70;;;;;;;12.06;76.45;101724.81;5060956;28;20055;-69
2021/10/30 10:38:58;;;;;;;54.17;34.08;;;;;;;12.47;75.72;101709.63;5058826;28;20041;-76
2021/10/30 10:41:48;;;;;;;59.13;39.38;;;;;;;12.27;75.18;101687.41;5049825;28;20561;-76
2021/10/30 10:44:43;;;;;;;55.72;35.95;;;;;;;12.95;74.24;101708.47;5059434;28;20068;-72
2021/10/30 10:47:11;;;;;;;58.20;39.45;;;;;;;13.03;72.81;101704.13;5057286;28;20049;-71
2021/10/30 10:52:20;;;;;;;70.80;40.47;;;;;;;12.42;75.24;101701.66;5061471;28;20130;-66
2021/10/30 10:55:03;;;;;;;75.63;41.75;;;;;;;12.62;74.40;101691.41;5081461;28;20168;-66
2021/10/30 10:57:46;;;;;;;54.22;37.00;;;;;;;13.56;71.57;101684.47;5084273;28;20043;-68
2021/10/30 11:00:13;;;;;;;55.00;36.25;;;;;;;13.37;71.42;101682.53;5079904;28;20051;-74
2021/10/30 11:02:51;;;;;;;62.63;35.30;;;;;;;13.52;71.31;101680.91;5084862;28;20451;-72
2021/10/30 11:05:20;;;;;;;61.38;37.47;;;;;;;13.58;71.00;101682.75;5078973;28;20055;-72
2021/10/30 11:07:49;;;;;;;54.20;36.90;;;;;;;13.34;71.62;101677.25;5079498;28;20052;-72
2021/10/30 11:10:34;;;;;;;50.72;35.40;;;;;;;14.56;68.50;101677.19;5080735;28;20044;-72
2021/10/30 11:13:00;;;;;;;55.22;37.05;;;;;;;15.32;65.70;101665.03;5083634;28;20574;-72
2021/10/30 11:15:29;;;;;;;59.42;41.30;;;;;;;14.39;67.08;101645.38;5067297;28;20041;-72
2021/10/30 11:18:13;;;;;;;52.17;36.17;;;;;;;14.38;67.91;101654.19;5064916;28;20033;-73